Time;durP1;ratioP1;P1;durP2;ratioP2;P2;SDS_P1;SDS_P2;PMS_P1;PMS_P2;Temp;Humidity;BMP_temperature;BMP_pressure;BME280_temperature;BME280_humidity;BME280_pressure;Samples;Min_cycle;Max_cycle;Signal;HPM_P1;HPM_P2
2021/07/21 00:02:58;;;;;;;13.23;8.70;;;;;;;19.37;100.00;94676.53;10525900;28;20028;-79
2021/07/21 00:07:58;;;;;;;14.02;7.85;;;;;;;19.16;100.00;94668.34;10526266;28;20270;-79
2021/07/21 00:20:05;;;;;;;17.83;8.88;;;;;;;18.92;100.00;94677.91;10524705;28;20024;-80
2021/07/21 00:23:40;;;;;;;15.98;9.48;;;;;;;18.92;100.00;94669.72;10518757;28;20414;-80
2021/07/21 00:28:41;;;;;;;17.33;9.93;;;;;;;18.92;100.00;94677.09;10567490;28;20461;-80
2021/07/21 00:33:47;;;;;;;20.90;9.68;;;;;;;18.93;100.00;94667.81;10566059;28;20047;-80
2021/07/21 00:38:48;;;;;;;18.73;9.63;;;;;;;18.94;100.00;94672.91;10573001;28;20509;-80
2021/07/21 00:43:48;;;;;;;24.90;11.73;;;;;;;18.86;100.00;94670.22;10562420;28;20038;-80
2021/07/21 00:48:49;;;;;;;18.83;10.53;;;;;;;18.83;100.00;94668.94;10562860;28;20035;-80
2021/07/21 00:53:50;;;;;;;18.17;10.73;;;;;;;18.84;100.00;94665.09;10573143;28;20265;-80
2021/07/21 00:58:50;;;;;;;17.10;9.85;;;;;;;18.94;100.00;94659.31;10574032;28;20020;-80
2021/07/21 01:03:51;;;;;;;23.40;10.48;;;;;;;18.99;100.00;94663.78;10573322;28;20027;-80
2021/07/21 01:08:51;;;;;;;18.83;10.50;;;;;;;19.04;100.00;94666.28;10573682;28;20015;-80
2021/07/21 01:14:08;;;;;;;27.63;11.15;;;;;;;19.12;100.00;94670.13;10572784;28;20024;-80
2021/07/21 01:19:15;;;;;;;22.42;10.82;;;;;;;19.20;100.00;94679.34;10572182;28;20754;-80
2021/07/21 01:24:28;;;;;;;16.88;9.55;;;;;;;19.21;100.00;94659.16;10572283;28;20752;-80
2021/07/21 01:29:28;;;;;;;22.42;11.57;;;;;;;19.22;100.00;94661.56;10577496;28;20027;-80
2021/07/21 01:34:32;;;;;;;19.23;10.77;;;;;;;19.28;100.00;94662.97;10570391;28;20031;-81
2021/07/21 01:39:39;;;;;;;18.90;10.68;;;;;;;19.06;100.00;94668.69;10571154;28;20024;-80
2021/07/21 01:44:43;;;;;;;19.23;10.93;;;;;;;19.03;100.00;94667.41;10572468;28;20035;-80
2021/07/21 01:49:43;;;;;;;21.73;11.60;;;;;;;18.87;100.00;94669.09;10571935;28;20027;-80
2021/07/21 01:54:45;;;;;;;28.02;10.23;;;;;;;18.84;100.00;94664.28;10571101;28;20058;-80
2021/07/21 01:59:46;;;;;;;19.83;10.85;;;;;;;18.83;100.00;94663.50;10570818;28;20034;-80
2021/07/21 02:04:48;;;;;;;20.52;10.90;;;;;;;18.81;100.00;94659.50;10570835;28;20506;-80
2021/07/21 02:09:49;;;;;;;20.17;10.73;;;;;;;18.83;100.00;94666.22;10571359;28;20020;-80
2021/07/21 02:14:49;;;;;;;21.80;11.65;;;;;;;18.79;100.00;94655.16;10570894;28;20383;-80
2021/07/21 02:19:49;;;;;;;26.48;11.52;;;;;;;18.88;100.00;94670.69;10552748;28;20030;-80
2021/07/21 02:24:51;;;;;;;21.13;11.83;;;;;;;18.95;100.00;94660.13;10569635;28;20130;-80
2021/07/21 02:29:52;;;;;;;21.00;11.00;;;;;;;18.98;100.00;94666.81;10570343;28;20081;-80
2021/07/21 02:34:53;;;;;;;17.08;10.25;;;;;;;19.04;100.00;94671.75;10570130;28;20045;-80
2021/07/21 02:39:54;;;;;;;17.90;10.80;;;;;;;19.01;100.00;94663.44;10570279;28;20034;-80
2021/07/21 02:44:54;;;;;;;26.75;11.65;;;;;;;19.05;100.00;94658.94;10569364;28;20291;-79
2021/07/21 02:49:55;;;;;;;20.80;10.57;;;;;;;18.91;100.00;94661.91;10568270;28;20024;-79
2021/07/21 02:55:13;;;;;;;20.83;11.45;;;;;;;18.79;100.00;94668.78;10568830;28;20410;-79
2021/07/21 03:00:16;;;;;;;19.70;11.47;;;;;;;18.79;100.00;94666.06;10567929;28;20020;-79
2021/07/21 03:05:20;;;;;;;21.85;11.65;;;;;;;18.76;100.00;94676.81;10567155;28;20277;-79
2021/07/21 03:10:20;;;;;;;23.02;11.75;;;;;;;18.80;100.00;94677.75;10549001;28;20026;-79
2021/07/21 03:15:24;;;;;;;21.73;10.68;;;;;;;18.80;100.00;94680.50;10567123;28;20020;-79
2021/07/21 03:20:26;;;;;;;17.58;12.38;;;;;;;18.70;100.00;94681.66;10563268;28;20138;-79
2021/07/21 03:25:27;;;;;;;21.27;12.02;;;;;;;18.61;100.00;94684.41;10568263;28;20510;-80
2021/07/21 03:30:29;;;;;;;24.13;12.10;;;;;;;18.56;100.00;94695.47;10548653;28;20919;-79
2021/07/21 03:35:33;;;;;;;19.58;10.95;;;;;;;18.69;100.00;94711.91;10572120;28;20019;-80
2021/07/21 03:40:33;;;;;;;22.17;11.50;;;;;;;18.77;100.00;94708.38;10602168;27;20031;-80
2021/07/21 03:45:34;;;;;;;17.85;9.85;;;;;;;18.86;100.00;94720.00;10599180;27;20038;-77
2021/07/21 03:50:35;;;;;;;19.05;11.02;;;;;;;18.91;100.00;94722.59;10579115;27;20460;-77
2021/07/21 03:55:38;;;;;;;25.90;10.82;;;;;;;18.96;100.00;94727.06;10583293;27;20873;-78
2021/07/21 04:00:38;;;;;;;17.58;10.10;;;;;;;18.94;100.00;94727.38;10607912;27;20019;-77
2021/07/21 04:05:39;;;;;;;21.08;11.23;;;;;;;19.01;100.00;94732.34;10616423;27;20020;-77
2021/07/21 04:10:39;;;;;;;17.33;9.95;;;;;;;18.91;100.00;94744.38;10614674;27;20473;-78
2021/07/21 04:15:40;;;;;;;21.67;9.23;;;;;;;18.97;100.00;94744.22;10616675;27;20035;-78
2021/07/21 04:20:42;;;;;;;19.50;10.20;;;;;;;19.06;100.00;94758.56;10616460;27;20110;-78
2021/07/21 04:25:42;;;;;;;19.83;10.55;;;;;;;19.12;100.00;94747.19;10616333;27;20046;-78
2021/07/21 04:30:43;;;;;;;20.42;10.13;;;;;;;19.24;100.00;94757.41;10612912;27;20027;-77
2021/07/21 04:35:44;;;;;;;19.30;10.70;;;;;;;19.45;100.00;94752.00;10581016;27;20030;-76
2021/07/21 04:40:46;;;;;;;21.83;9.43;;;;;;;19.80;100.00;94760.00;10572849;28;20121;-77
2021/07/21 04:45:48;;;;;;;20.80;9.13;;;;;;;20.36;100.00;94758.09;10570761;28;20288;-77
2021/07/21 04:50:50;;;;;;;20.48;10.25;;;;;;;20.86;100.00;94759.91;10598414;27;20031;-77
2021/07/21 04:55:51;;;;;;;15.45;8.73;;;;;;;21.29;100.00;94761.31;10614647;27;20053;-77
2021/07/21 05:00:53;;;;;;;15.10;8.93;;;;;;;21.40;100.00;94763.59;10614685;27;20110;-78
2021/07/21 05:05:54;;;;;;;19.45;9.45;;;;;;;21.51;100.00;94772.94;10605474;27;20398;-78
2021/07/21 05:10:55;;;;;;;23.73;9.52;;;;;;;21.44;100.00;94769.97;10614082;27;20019;-79
2021/07/21 05:15:55;;;;;;;16.85;8.90;;;;;;;21.90;100.00;94767.91;10614091;27;20027;-78
2021/07/21 05:20:55;;;;;;;17.08;9.38;;;;;;;21.90;100.00;94772.59;10614579;27;20079;-78
2021/07/21 05:25:57;;;;;;;16.33;9.33;;;;;;;22.02;100.00;94773.38;10613113;27;20130;-78
2021/07/21 05:30:57;;;;;;;13.23;8.70;;;;;;;22.18;100.00;94773.44;10613419;27;20031;-78
2021/07/21 05:35:58;;;;;;;17.63;7.97;;;;;;;22.43;100.00;94769.88;10613369;27;20022;-78
2021/07/21 05:40:59;;;;;;;15.73;8.75;;;;;;;22.86;100.00;94773.78;10629201;27;20459;-78
2021/07/21 05:46:00;;;;;;;19.67;9.10;;;;;;;23.76;93.57;94775.22;10612740;27;20613;-78
2021/07/21 05:51:00;;;;;;;16.63;7.80;;;;;;;24.61;82.75;94763.75;10613312;27;20046;-78
2021/07/21 05:56:01;;;;;;;21.37;8.80;;;;;;;24.45;75.37;94761.84;10612214;27;20038;-78
2021/07/21 06:01:01;;;;;;;17.15;8.55;;;;;;;24.60;69.45;94773.91;10611653;27;20039;-78
2021/07/21 06:06:01;;;;;;;18.43;9.03;;;;;;;24.01;69.15;94765.63;10612590;27;20038;-78
2021/07/21 06:11:02;;;;;;;13.18;8.02;;;;;;;24.34;67.98;94771.81;10611948;27;20123;-78
2021/07/21 06:16:06;;;;;;;13.45;8.00;;;;;;;24.87;65.19;94772.09;10610857;27;20027;-78
2021/07/21 06:21:06;;;;;;;12.70;7.82;;;;;;;25.03;64.87;94780.25;10617533;27;20518;-78
2021/07/21 06:26:07;;;;;;;18.03;10.07;;;;;;;26.26;63.16;94785.78;10611069;27;20183;-79
2021/07/21 06:31:07;;;;;;;13.60;7.45;;;;;;;27.22;52.22;94780.97;10610330;27;20031;-79
2021/07/21 06:36:08;;;;;;;14.15;7.45;;;;;;;26.66;52.52;94782.72;10611189;27;20115;-79
2021/07/21 06:41:08;;;;;;;16.25;7.93;;;;;;;27.43;50.30;94781.22;10610506;27;20031;-79
2021/07/21 06:46:09;;;;;;;16.43;7.20;;;;;;;28.25;47.71;94798.78;10610206;27;20083;-79
2021/07/21 06:51:09;;;;;;;13.55;7.43;;;;;;;28.63;47.48;94805.75;10610625;27;20292;-79
2021/07/21 06:56:10;;;;;;;13.87;7.07;;;;;;;29.41;44.48;94806.38;10610491;27;20139;-79
2021/07/21 07:01:10;;;;;;;11.27;6.83;;;;;;;29.23;43.92;94797.22;10609570;28;20042;-79
2021/07/21 07:06:11;;;;;;;10.37;7.00;;;;;;;28.12;45.28;94793.59;10609788;28;20087;-79
2021/07/21 07:11:11;;;;;;;16.63;7.53;;;;;;;28.50;45.54;94798.94;10616446;27;20280;-79
2021/07/21 07:16:15;;;;;;;17.70;7.15;;;;;;;30.35;40.85;94798.03;10618461;27;20027;-79
2021/07/21 07:21:15;;;;;;;18.33;7.10;;;;;;;31.38;37.84;94792.47;10634916;27;20558;-79
2021/07/21 07:26:16;;;;;;;13.77;7.17;;;;;;;32.75;35.43;94788.50;10618699;27;20047;-79
2021/07/21 07:31:17;;;;;;;13.90;6.90;;;;;;;32.36;35.31;94801.63;10599256;27;20038;-79
2021/07/21 07:36:17;;;;;;;12.77;7.45;;;;;;;32.32;35.75;94794.50;10617660;27;20038;-79
2021/07/21 07:41:20;;;;;;;13.00;6.57;;;;;;;32.42;35.63;94801.19;10618024;27;20027;-79
2021/07/21 07:46:25;;;;;;;27.23;7.47;;;;;;;33.25;34.23;94786.31;10598684;27;20088;-79
2021/07/21 07:51:29;;;;;;;15.00;6.97;;;;;;;32.13;34.94;94793.88;10617596;27;20470;-79
2021/07/21 07:56:31;;;;;;;10.23;5.97;;;;;;;31.12;35.57;94791.84;10616666;27;20053;-79
2021/07/21 08:01:32;;;;;;;14.93;6.07;;;;;;;32.82;32.97;94790.41;10616955;27;20409;-79
2021/07/21 08:06:34;;;;;;;14.15;6.30;;;;;;;33.45;32.37;94784.41;10617019;27;20023;-79
2021/07/21 08:11:34;;;;;;;16.13;6.43;;;;;;;34.17;31.58;94793.63;10616512;27;20102;-79
2021/07/21 08:16:34;;;;;;;11.63;6.43;;;;;;;34.73;30.41;94790.19;10616743;27;20451;-79
2021/07/21 08:21:35;;;;;;;8.37;5.87;;;;;;;35.27;29.74;94789.09;10616712;27;20131;-79
2021/07/21 08:26:35;;;;;;;10.90;6.23;;;;;;;35.74;28.53;94790.84;10615281;27;20135;-80
2021/07/21 08:31:36;;;;;;;8.33;5.27;;;;;;;33.93;30.80;94787.28;10615598;27;20031;-79
2021/07/21 08:36:37;;;;;;;7.03;4.78;;;;;;;35.27;28.68;94793.91;10615361;27;20297;-79
2021/07/21 08:41:40;;;;;;;10.63;5.85;;;;;;;33.67;30.23;94798.00;10597349;27;20043;-79
2021/07/21 08:46:41;;;;;;;12.80;6.03;;;;;;;34.54;28.82;94800.16;10615328;27;20489;-80
2021/07/21 08:51:42;;;;;;;9.60;5.60;;;;;;;34.84;27.22;94801.19;10615412;27;20114;-79
2021/07/21 08:56:45;;;;;;;15.98;5.60;;;;;;;33.15;30.23;94783.22;10614901;27;20030;-79
2021/07/21 09:01:45;;;;;;;10.57;5.43;;;;;;;35.15;29.04;94789.75;10615041;27;20027;-80
2021/07/21 09:06:46;;;;;;;14.35;6.15;;;;;;;35.17;27.88;94790.13;10614324;27;20030;-80
2021/07/21 09:11:46;;;;;;;11.37;6.13;;;;;;;31.92;31.80;94794.09;10614173;27;20027;-79
2021/07/21 09:17:09;;;;;;;9.07;5.50;;;;;;;34.71;29.25;94781.47;10613986;27;20027;-79
2021/07/21 09:22:19;;;;;;;11.80;5.18;;;;;;;35.39;28.40;94785.66;10614281;27;20118;-80
2021/07/21 09:27:26;;;;;;;16.05;6.30;;;;;;;31.49;31.91;94784.84;10574653;27;20418;-80
2021/07/21 09:32:26;;;;;;;10.63;5.22;;;;;;;34.38;29.25;94764.56;10569962;28;20521;-79
2021/07/21 09:37:26;;;;;;;7.90;5.40;;;;;;;35.66;28.92;94764.28;10571343;28;20031;-80
2021/07/21 09:42:29;;;;;;;9.90;5.70;;;;;;;35.15;29.85;94759.84;10571129;28;20036;-80
2021/07/21 09:47:29;;;;;;;9.93;5.78;;;;;;;33.97;29.30;94765.69;10569839;28;20024;-80
2021/07/21 09:52:29;;;;;;;10.47;6.13;;;;;;;32.00;32.01;94751.13;10570660;28;20023;-80
2021/07/21 09:57:30;;;;;;;9.73;6.27;;;;;;;34.06;30.84;94763.13;10570086;28;20027;-79
2021/07/21 10:02:30;;;;;;;10.35;6.13;;;;;;;33.84;30.99;94757.94;10569368;28;20426;-79
2021/07/21 10:07:48;;;;;;;16.60;6.67;;;;;;;34.53;28.63;94751.91;10569779;28;20024;-80
2021/07/21 10:13:02;;;;;;;11.40;6.75;;;;;;;35.33;28.13;94753.84;10569757;28;20031;-80
2021/07/21 10:18:07;;;;;;;12.75;6.55;;;;;;;32.59;31.08;94757.69;10569424;28;20483;-80
2021/07/21 10:23:08;;;;;;;12.88;6.78;;;;;;;33.18;31.57;94748.16;10572056;27;20418;-79
2021/07/21 10:28:09;;;;;;;8.45;6.22;;;;;;;32.87;30.84;94746.19;10611666;27;20023;-80
2021/07/21 10:33:11;;;;;;;11.43;6.25;;;;;;;31.49;32.03;94740.41;10611531;27;20489;-79
2021/07/21 10:38:12;;;;;;;10.57;5.80;;;;;;;32.98;30.37;94746.06;10609902;27;20473;-80
2021/07/21 10:43:14;;;;;;;19.92;6.40;;;;;;;31.84;30.34;94749.69;10610376;27;20030;-80
2021/07/21 10:48:24;;;;;;;10.98;6.53;;;;;;;31.38;32.33;94761.16;10610160;27;20737;-79
2021/07/21 11:04:02;;;;;;;14.80;6.03;;;;;;;35.14;28.07;94746.28;10610439;27;20072;-80
2021/07/21 11:09:20;;;;;;;11.80;6.03;;;;;;;31.49;30.78;94740.41;10609722;27;20026;-79
2021/07/21 11:14:34;;;;;;;13.60;6.60;;;;;;;29.41;34.10;94717.00;10610451;28;20023;-80
2021/07/21 11:19:48;;;;;;;15.00;7.38;;;;;;;26.39;37.49;94722.94;10610028;28;20028;-79
2021/07/21 11:25:14;;;;;;;11.50;6.80;;;;;;;25.23;40.78;94727.94;10609712;27;20466;-79
2021/07/21 11:30:42;;;;;;;12.25;6.75;;;;;;;25.45;40.82;94744.81;10610047;28;20023;-79
2021/07/21 11:35:43;;;;;;;14.32;6.53;;;;;;;25.36;42.30;94740.34;10610461;28;20020;-79
2021/07/21 11:40:44;;;;;;;14.60;7.28;;;;;;;25.48;42.84;94738.56;10610357;28;20027;-79
2021/07/21 11:45:44;;;;;;;11.30;6.78;;;;;;;25.29;43.73;94744.94;10609306;28;20031;-79
2021/07/21 11:50:45;;;;;;;16.15;6.97;;;;;;;25.05;41.66;94758.66;10609501;28;20496;-79
2021/07/21 11:55:45;;;;;;;13.07;6.50;;;;;;;25.03;42.41;94763.75;10613275;27;20027;-79
2021/07/21 12:00:51;;;;;;;13.90;6.53;;;;;;;25.11;42.38;94758.38;10616305;27;20035;-79
2021/07/21 12:05:53;;;;;;;10.65;5.45;;;;;;;25.47;42.42;94776.31;10617016;27;20435;-80
2021/07/21 12:10:54;;;;;;;13.88;6.47;;;;;;;25.61;40.08;94758.41;10617249;27;20058;-79
2021/07/21 12:16:01;;;;;;;14.43;6.10;;;;;;;25.67;41.01;94760.50;10615873;27;20516;-79
2021/07/21 12:21:09;;;;;;;10.57;5.57;;;;;;;24.91;40.97;94752.94;10637154;27;20020;-79
2021/07/21 12:26:10;;;;;;;14.57;6.55;;;;;;;24.63;41.94;94755.91;10618117;27;20515;-79
2021/07/21 12:31:10;;;;;;;12.00;5.50;;;;;;;24.78;45.00;94763.28;10615711;27;20030;-79
2021/07/21 12:36:11;;;;;;;7.93;5.10;;;;;;;24.88;42.76;94761.88;10615426;27;20034;-79
2021/07/21 12:41:11;;;;;;;12.82;6.10;;;;;;;25.07;43.22;94761.84;10615764;27;20023;-79
2021/07/21 12:46:16;;;;;;;15.40;6.53;;;;;;;25.25;42.10;94769.63;10615245;27;20073;-79
2021/07/21 12:51:17;;;;;;;15.00;7.78;;;;;;;25.27;42.33;94761.81;10617350;27;20035;-79
2021/07/21 12:56:17;;;;;;;9.82;5.70;;;;;;;25.45;42.82;94770.38;10615272;27;20462;-80
2021/07/21 13:01:24;;;;;;;12.10;6.00;;;;;;;25.49;42.24;94768.47;10615060;27;20035;-79
2021/07/21 13:06:25;;;;;;;12.52;5.40;;;;;;;25.49;41.60;94762.97;10613928;27;20397;-79
2021/07/21 13:11:28;;;;;;;13.93;6.15;;;;;;;25.35;42.67;94776.50;10614992;27;20128;-80
2021/07/21 13:16:33;;;;;;;9.90;6.43;;;;;;;25.49;41.82;94771.22;10613840;27;20031;-79
2021/07/21 13:21:36;;;;;;;11.65;6.85;;;;;;;24.93;43.99;94772.59;10614466;27;20015;-79
2021/07/21 13:26:37;;;;;;;9.07;5.97;;;;;;;24.80;42.01;94777.47;10613797;27;20043;-78
2021/07/21 13:31:40;;;;;;;8.15;5.75;;;;;;;24.89;44.04;94777.22;10620047;27;20071;-79
2021/07/21 13:36:42;;;;;;;14.48;5.55;;;;;;;24.88;42.75;94761.88;10612857;27;20031;-79
2021/07/21 13:41:53;;;;;;;12.43;6.63;;;;;;;24.89;43.00;94767.03;10613635;27;20035;-79
2021/07/21 13:46:58;;;;;;;11.90;6.30;;;;;;;24.82;43.39;94768.84;10612993;27;20447;-79
2021/07/21 13:52:02;;;;;;;14.40;6.35;;;;;;;24.27;44.45;94755.19;10613289;27;20039;-80
2021/07/21 13:57:13;;;;;;;11.27;6.25;;;;;;;23.98;45.42;94771.81;10612311;27;20115;-79
2021/07/21 14:02:21;;;;;;;14.57;8.90;;;;;;;24.16;46.02;94772.22;10612234;27;20027;-79
2021/07/21 14:07:22;;;;;;;14.45;7.28;;;;;;;24.34;44.88;94758.06;10619580;27;20027;-79
2021/07/21 14:12:22;;;;;;;10.05;5.95;;;;;;;24.34;45.50;94761.59;10611717;27;20414;-79
2021/07/21 14:17:22;;;;;;;11.50;6.30;;;;;;;24.28;45.44;94768.56;10611481;27;20031;-79
2021/07/21 14:22:23;;;;;;;11.93;7.40;;;;;;;24.15;48.16;94770.63;10611890;27;20038;-79
2021/07/21 14:27:23;;;;;;;15.30;6.87;;;;;;;24.22;47.72;94775.47;10611508;27;21128;-79
2021/07/21 14:32:23;;;;;;;12.30;6.53;;;;;;;24.14;46.67;94776.47;10610441;27;20038;-79
2021/07/21 14:37:24;;;;;;;10.30;6.97;;;;;;;24.06;46.45;94778.28;10611184;27;20049;-79
2021/07/21 14:42:24;;;;;;;8.77;5.40;;;;;;;23.99;47.47;94778.91;10611388;27;20492;-78
2021/07/21 14:47:25;;;;;;;10.67;6.53;;;;;;;24.02;46.96;94775.44;10610837;27;20027;-79
2021/07/21 14:52:26;;;;;;;15.50;5.95;;;;;;;23.81;46.07;94773.00;10611053;27;20038;-79
2021/07/21 14:57:26;;;;;;;9.23;5.50;;;;;;;23.42;46.67;94767.38;10592350;27;20489;-79
2021/07/21 15:02:27;;;;;;;11.30;6.27;;;;;;;23.51;47.82;94770.75;10609924;27;20276;-79
2021/07/21 15:07:27;;;;;;;12.97;6.63;;;;;;;23.53;48.83;94770.38;10610371;28;20030;-78
2021/07/21 15:12:27;;;;;;;10.90;6.17;;;;;;;23.48;46.25;94790.63;10610462;27;20039;-79
2021/07/21 15:17:28;;;;;;;10.87;5.10;;;;;;;23.42;46.58;94792.06;10610240;27;20031;-78
2021/07/21 15:22:28;;;;;;;9.45;5.95;;;;;;;23.07;48.03;94789.97;10610324;28;20272;-79
2021/07/21 15:27:29;;;;;;;11.77;5.95;;;;;;;23.15;48.48;94785.50;10610231;27;20047;-78
2021/07/21 15:32:29;;;;;;;10.37;5.83;;;;;;;23.31;47.24;94783.56;10616676;27;20130;-79
2021/07/21 15:37:29;;;;;;;10.80;6.03;;;;;;;23.24;46.96;94783.38;10618263;27;20296;-79
2021/07/21 15:42:30;;;;;;;10.83;5.83;;;;;;;23.16;46.95;94785.16;10618092;27;20324;-79
2021/07/21 15:47:31;;;;;;;11.45;6.05;;;;;;;23.04;48.08;94790.69;10618018;27;20051;-79
2021/07/21 15:52:31;;;;;;;10.43;5.63;;;;;;;23.02;46.82;94792.97;10616872;27;20505;-79
2021/07/21 15:57:31;;;;;;;11.13;6.53;;;;;;;22.94;46.66;94786.53;10617375;27;20059;-79
2021/07/21 16:02:32;;;;;;;11.52;6.20;;;;;;;22.92;48.32;94788.00;10617473;27;20806;-79
2021/07/21 16:07:32;;;;;;;9.43;5.60;;;;;;;22.78;47.53;94797.44;10616717;27;20019;-79
2021/07/21 16:12:33;;;;;;;16.70;7.13;;;;;;;22.60;50.11;94799.69;10616984;27;20027;-79
2021/07/21 16:17:33;;;;;;;15.93;6.90;;;;;;;22.70;51.08;94801.13;10617132;27;20122;-79
2021/07/21 16:22:34;;;;;;;9.87;6.00;;;;;;;22.71;51.21;94810.94;10616302;27;20027;-79
2021/07/21 16:27:34;;;;;;;13.77;6.68;;;;;;;22.57;51.78;94811.34;10616611;27;20043;-79
2021/07/21 16:32:34;;;;;;;11.80;5.97;;;;;;;22.29;52.67;94806.59;10616886;27;20027;-79
2021/07/21 16:37:35;;;;;;;9.63;6.53;;;;;;;22.05;53.38;94812.13;10615824;27;20027;-79
2021/07/21 16:42:35;;;;;;;12.33;6.97;;;;;;;22.00;54.70;94826.84;10614398;27;20085;-79
2021/07/21 16:47:36;;;;;;;10.45;6.90;;;;;;;21.82;55.70;94829.03;10615377;27;20031;-79
2021/07/21 16:52:37;;;;;;;11.13;6.80;;;;;;;21.77;56.52;94823.78;10615330;27;20039;-79
2021/07/21 16:57:38;;;;;;;12.85;7.03;;;;;;;21.62;58.85;94837.00;10614897;27;20033;-79
2021/07/21 17:02:38;;;;;;;12.85;7.25;;;;;;;21.76;57.92;94833.16;10615569;27;20023;-79
2021/07/21 17:07:38;;;;;;;12.53;7.67;;;;;;;21.79;58.27;94833.25;10615705;27;20039;-79
2021/07/21 17:12:39;;;;;;;10.77;7.30;;;;;;;21.79;58.64;94835.97;10614450;27;20292;-79
2021/07/21 17:17:40;;;;;;;14.52;8.73;;;;;;;21.84;59.05;94834.97;10630511;27;20027;-79
2021/07/21 17:22:41;;;;;;;13.48;6.57;;;;;;;20.90;63.67;94842.75;10596428;27;20408;-79
2021/07/21 17:27:41;;;;;;;11.95;7.30;;;;;;;19.93;73.27;94844.63;10613583;27;20035;-79
2021/07/21 17:32:43;;;;;;;12.20;6.90;;;;;;;19.94;75.92;94847.03;10596486;27;20026;-79
2021/07/21 17:37:45;;;;;;;13.35;7.43;;;;;;;20.05;76.25;94843.91;10614136;27;20031;-79
2021/07/21 17:42:45;;;;;;;10.23;6.65;;;;;;;20.11;76.14;94842.59;10613282;27;20530;-79
2021/07/21 17:47:46;;;;;;;11.70;6.90;;;;;;;20.22;77.28;94853.88;10595183;27;20083;-79
2021/07/21 17:52:46;;;;;;;11.05;7.13;;;;;;;20.19;75.71;94858.09;10628951;27;20083;-79
2021/07/21 17:57:47;;;;;;;13.00;7.95;;;;;;;20.13;77.78;94856.69;10612377;27;20041;-79
2021/07/21 18:02:48;;;;;;;14.38;7.90;;;;;;;20.20;78.42;94867.88;10612439;27;20493;-78
2021/07/21 18:07:53;;;;;;;16.77;8.75;;;;;;;20.21;76.28;94874.94;10612671;27;20027;-79
2021/07/21 18:12:54;;;;;;;12.38;7.45;;;;;;;20.23;78.84;94882.78;10614344;27;20023;-79
2021/07/21 18:17:54;;;;;;;13.03;6.83;;;;;;;20.16;78.18;94888.75;10611679;27;20081;-79
2021/07/21 18:22:55;;;;;;;13.02;6.68;;;;;;;20.13;79.74;94897.63;10628250;27;20268;-78
2021/07/21 18:27:56;;;;;;;13.02;8.02;;;;;;;20.14;81.30;94904.69;10611300;27;20026;-79
2021/07/21 18:32:57;;;;;;;15.07;7.65;;;;;;;19.93;82.66;94904.63;10611909;27;20477;-78
2021/07/21 18:37:58;;;;;;;14.32;8.15;;;;;;;19.79;85.12;94913.00;10611413;27;20131;-79
2021/07/21 18:42:58;;;;;;;14.80;8.10;;;;;;;19.67;85.78;94915.63;10610213;27;20394;-79
2021/07/21 18:47:59;;;;;;;13.53;7.63;;;;;;;19.46;90.20;94919.06;10609564;27;20055;-78
2021/07/21 18:52:59;;;;;;;13.30;8.57;;;;;;;19.43;89.34;94922.44;10609731;27;20818;-78
2021/07/21 18:57:59;;;;;;;17.33;8.10;;;;;;;19.36;90.81;94933.03;10609188;27;20133;-79
2021/07/21 19:03:00;;;;;;;20.13;8.33;;;;;;;19.21;93.36;94939.78;10609430;27;20115;-79
2021/07/21 19:08:01;;;;;;;14.90;7.85;;;;;;;19.19;94.68;94940.13;10609370;28;20275;-78
2021/07/21 19:13:01;;;;;;;12.97;6.97;;;;;;;19.10;95.07;94939.31;10608770;27;20375;-78
2021/07/21 19:18:02;;;;;;;11.60;7.47;;;;;;;19.09;96.29;94948.63;10609105;27;20377;-78
2021/07/21 19:23:02;;;;;;;16.00;8.68;;;;;;;18.99;98.29;94947.03;10609319;27;20059;-78
2021/07/21 19:28:03;;;;;;;15.60;8.73;;;;;;;18.92;99.51;94947.53;10609051;28;20027;-79
2021/07/21 19:33:04;;;;;;;12.70;7.70;;;;;;;18.90;99.32;94947.03;10606436;28;20026;-79
2021/07/21 19:38:04;;;;;;;14.95;7.60;;;;;;;18.83;100.00;94962.22;10594735;28;20491;-78
2021/07/21 19:43:05;;;;;;;14.90;8.07;;;;;;;18.82;100.00;94955.16;10595649;28;20096;-77
2021/07/21 19:48:05;;;;;;;17.40;8.50;;;;;;;18.80;100.00;94955.50;10595333;28;20300;-82
2021/07/21 19:53:05;;;;;;;16.60;9.43;;;;;;;18.76;100.00;94965.41;10579950;28;20027;-78
2021/07/21 19:58:06;;;;;;;19.90;10.23;;;;;;;18.69;100.00;94970.56;10585222;28;20050;-78
2021/07/21 20:03:07;;;;;;;18.13;9.85;;;;;;;18.62;100.00;94962.84;10570199;28;20449;-77
2021/07/21 20:08:07;;;;;;;15.10;9.37;;;;;;;18.68;100.00;94971.66;10589871;28;20011;-78
2021/07/21 20:13:07;;;;;;;17.00;8.75;;;;;;;18.61;100.00;94963.97;10582623;28;20031;-78
2021/07/21 20:18:08;;;;;;;17.13;8.90;;;;;;;18.50;100.00;94971.63;10570142;28;20059;-78
2021/07/21 20:23:08;;;;;;;18.02;9.38;;;;;;;18.44;100.00;94972.91;10572655;28;20285;-78
2021/07/21 20:28:09;;;;;;;15.63;8.43;;;;;;;18.47;100.00;94969.53;10554623;28;20076;-78
2021/07/21 20:33:10;;;;;;;15.38;8.35;;;;;;;18.39;100.00;94976.59;10571790;28;20044;-77
2021/07/21 20:38:11;;;;;;;18.10;9.55;;;;;;;18.52;100.00;94969.41;10569229;28;20081;-77
2021/07/21 20:43:12;;;;;;;16.23;8.43;;;;;;;18.42;100.00;94977.88;10570841;28;20069;-77
2021/07/21 20:48:12;;;;;;;16.35;8.80;;;;;;;18.48;100.00;94973.09;10554167;28;20027;-77
2021/07/21 20:53:14;;;;;;;17.73;9.47;;;;;;;18.38;100.00;94974.97;10528930;28;20101;-78
2021/07/21 20:58:15;;;;;;;16.67;8.57;;;;;;;18.28;100.00;94978.00;10529439;28;20107;-77
2021/07/21 21:03:15;;;;;;;16.97;8.70;;;;;;;18.21;100.00;94978.47;10529457;28;20024;-77
2021/07/21 21:08:15;;;;;;;19.00;9.43;;;;;;;18.33;100.00;94977.84;10544865;28;20602;-78
2021/07/21 21:13:16;;;;;;;17.43;7.90;;;;;;;18.30;100.00;94980.41;10527930;28;20024;-78
2021/07/21 21:18:16;;;;;;;20.80;8.73;;;;;;;18.18;100.00;94981.81;10528018;28;20718;-77
2021/07/21 21:23:17;;;;;;;19.00;9.20;;;;;;;18.05;100.00;94983.50;10527847;28;20101;-77
2021/07/21 21:28:17;;;;;;;17.33;9.40;;;;;;;18.13;100.00;94981.94;10527160;28;20028;-77
2021/07/21 21:33:19;;;;;;;17.80;9.03;;;;;;;17.99;100.00;94986.72;10528588;28;20067;-77
2021/07/21 21:38:20;;;;;;;14.10;8.25;;;;;;;17.86;100.00;94991.91;10527378;28;20297;-77
2021/07/21 21:43:20;;;;;;;16.67;9.33;;;;;;;17.80;100.00;94995.06;10528002;28;20092;-78
2021/07/21 21:48:20;;;;;;;18.73;9.47;;;;;;;17.72;100.00;95000.16;10528419;28;20020;-77
2021/07/21 21:53:21;;;;;;;23.50;10.87;;;;;;;17.63;100.00;94998.50;10526532;28;20034;-78
2021/07/21 21:58:21;;;;;;;14.20;8.60;;;;;;;17.59;100.00;95001.81;10525866;28;20024;-78
2021/07/21 22:03:21;;;;;;;18.37;9.50;;;;;;;17.50;100.00;95003.69;10569858;27;20031;-79
2021/07/21 22:08:22;;;;;;;17.43;8.60;;;;;;;17.46;100.00;94988.34;10597497;27;20023;-78
2021/07/21 22:13:22;;;;;;;16.67;9.00;;;;;;;17.38;100.00;94998.03;10568877;28;20016;-79
2021/07/21 22:18:25;;;;;;;18.37;9.23;;;;;;;17.36;100.00;95011.13;10569336;28;20052;-79
2021/07/21 22:23:27;;;;;;;14.23;8.95;;;;;;;17.44;100.00;95004.91;10567918;28;20651;-78
2021/07/21 22:28:33;;;;;;;15.32;9.13;;;;;;;17.41;100.00;95002.84;10568380;28;20020;-78
2021/07/21 22:33:38;;;;;;;20.83;10.13;;;;;;;17.45;100.00;95009.25;10567730;28;20038;-78
2021/07/21 22:38:40;;;;;;;14.50;8.82;;;;;;;17.40;100.00;95003.94;10568082;28;20055;-78
2021/07/21 22:43:43;;;;;;;18.83;10.20;;;;;;;17.42;100.00;95004.44;10567770;28;20134;-78
2021/07/21 22:48:44;;;;;;;18.40;9.20;;;;;;;17.32;100.00;95002.00;10549700;28;20106;-78
2021/07/21 22:53:47;;;;;;;17.45;9.30;;;;;;;17.14;100.00;95003.78;10568213;28;20051;-78
2021/07/21 22:58:50;;;;;;;16.52;8.63;;;;;;;17.09;100.00;94988.38;10566978;28;20367;-78
2021/07/21 23:04:28;;;;;;;20.42;9.88;;;;;;;17.02;100.00;94996.16;10571185;28;20062;-79
2021/07/21 23:10:06;;;;;;;19.52;8.35;;;;;;;17.03;100.00;94992.34;10567171;28;20032;-78
2021/07/21 23:15:10;;;;;;;22.15;9.60;;;;;;;16.98;100.00;94995.19;10567014;28;20036;-78
2021/07/21 23:20:15;;;;;;;16.13;9.18;;;;;;;17.02;100.00;94990.72;10566525;28;20019;-78